createdAt,value
2024-03-24T00:00:13.134Z,85.9477
2024-03-24T00:01:16.161Z,86.2164
2024-03-24T00:02:19.195Z,85.4913
2024-03-24T00:03:22.215Z,85.7450
2024-03-24T00:04:25.288Z,84.7306
2024-03-24T00:05:28.323Z,85.5044
2024-03-24T00:06:31.367Z,85.4089
2024-03-24T00:07:34.396Z,84.9709
2024-03-24T00:08:37.442Z,84.9428
2024-03-24T00:09:40.495Z,85.6047
2024-03-24T00:10:43.533Z,84.3513
2024-03-24T00:11:46.574Z,84.0805
2024-03-24T00:12:49.599Z,84.4433
2024-03-24T00:13:52.652Z,84.5830
2024-03-24T00:14:55.686Z,84.4729
2024-03-24T00:15:59.066Z,84.7083
2024-03-24T00:17:02.121Z,84.1074
2024-03-24T00:18:05.126Z,83.6736
2024-03-24T00:19:08.219Z,84.3421
2024-03-24T00:20:11.252Z,83.6494
2024-03-24T00:21:14.261Z,84.6168
2024-03-24T00:22:17.550Z,83.6344
2024-03-24T00:23:20.590Z,83.7989
2024-03-24T00:24:23.728Z,82.6123
2024-03-24T00:25:26.734Z,82.9828
2024-03-24T00:26:29.769Z,82.5414
2024-03-24T00:27:32.745Z,82.4531
2024-03-24T00:28:35.921Z,83.9336
2024-03-24T00:29:38.939Z,83.8806
2024-03-24T00:30:41.900Z,84.1513
2024-03-24T00:31:44.983Z,83.6509
2024-03-24T00:32:48.018Z,83.8479
2024-03-24T00:33:51.040Z,83.5142
2024-03-24T00:34:54.410Z,83.0383
2024-03-24T00:35:57.608Z,83.1350
2024-03-24T00:37:00.797Z,83.2088
2024-03-24T00:38:03.825Z,84.1185
2024-03-24T00:39:06.883Z,83.8192
2024-03-24T00:40:09.918Z,83.8162
2024-03-24T00:41:12.909Z,84.5719
2024-03-24T00:42:16.004Z,83.6076
2024-03-24T00:43:19.058Z,84.2353
2024-03-24T00:44:22.099Z,83.8156
2024-03-24T00:45:25.146Z,84.5773
2024-03-24T00:46:28.180Z,84.2601
2024-03-24T00:47:31.244Z,85.2928
2024-03-24T00:48:34.247Z,86.0833
2024-03-24T00:49:37.244Z,84.7539
2024-03-24T00:50:40.347Z,84.9346
2024-03-24T00:51:43.362Z,84.5620
2024-03-24T00:52:46.669Z,84.8173
2024-03-24T00:53:49.766Z,84.7087
2024-03-24T00:54:52.787Z,84.8614
2024-03-24T00:55:55.844Z,84.5715
2024-03-24T00:56:58.901Z,84.8299
2024-03-24T00:58:02.275Z,85.3692
2024-03-24T00:59:05.286Z,85.8930
2024-03-24T01:00:08.324Z,86.2524
2024-03-24T01:01:11.391Z,86.3128
2024-03-24T01:02:14.355Z,86.4134
2024-03-24T01:03:17.451Z,86.3741
2024-03-24T01:04:20.507Z,86.0907
2024-03-24T01:05:23.556Z,86.7546
2024-03-24T01:06:26.601Z,86.3823
2024-03-24T01:07:29.676Z,86.7892
2024-03-24T01:08:32.724Z,86.7408
2024-03-24T01:09:35.712Z,86.6735
2024-03-24T01:10:38.752Z,86.6158
2024-03-24T01:11:41.900Z,86.3065
2024-03-24T01:12:44.883Z,86.6657
2024-03-24T01:13:47.900Z,87.2752
2024-03-24T01:14:50.904Z,87.1652
2024-03-24T01:15:53.930Z,87.5413
2024-03-24T01:16:56.893Z,87.8898
2024-03-24T01:18:00.015Z,87.8359
2024-03-24T01:19:03.094Z,87.0531
2024-03-24T01:20:06.073Z,87.5898
2024-03-24T01:21:09.150Z,87.7418
2024-03-24T01:22:12.202Z,88.0391
2024-03-24T01:23:15.198Z,88.0328
2024-03-24T01:24:18.250Z,88.1587
2024-03-24T01:25:21.292Z,87.8209
2024-03-24T01:26:24.392Z,87.9911
2024-03-24T01:27:27.422Z,88.5256
2024-03-24T01:28:30.542Z,88.3219
2024-03-24T01:29:33.532Z,88.2461
2024-03-24T01:30:36.581Z,88.5172
2024-03-24T01:31:39.652Z,88.5532
2024-03-24T01:32:42.652Z,88.1473
2024-03-24T01:33:45.673Z,88.1393
2024-03-24T01:34:48.967Z,88.4567
2024-03-24T01:35:52.045Z,88.5729
2024-03-24T01:36:55.061Z,89.2043
2024-03-24T01:37:58.062Z,89.5928
2024-03-24T01:39:01.132Z,89.6878
2024-03-24T01:40:04.167Z,89.8810
2024-03-24T01:41:07.189Z,89.8252
2024-03-24T01:42:10.196Z,89.3413
2024-03-24T01:43:13.298Z,89.5759
2024-03-24T01:44:16.342Z,90.3246
2024-03-24T01:45:19.353Z,89.4857
2024-03-24T01:46:22.462Z,89.9311
2024-03-24T01:47:25.486Z,89.9044
2024-03-24T01:48:28.493Z,90.3226
2024-03-24T01:49:31.675Z,90.4661
2024-03-24T01:50:34.703Z,90.5090
2024-03-24T01:51:37.684Z,90.8750
2024-03-24T01:52:40.715Z,91.1505
2024-03-24T01:53:43.684Z,91.0878
2024-03-24T01:54:46.746Z,90.9706
2024-03-24T01:55:49.763Z,91.4594
2024-03-24T01:56:52.821Z,91.5960
2024-03-24T01:57:55.867Z,91.6864
2024-03-24T01:58:58.915Z,91.9611
2024-03-24T02:00:01.915Z,91.8202
2024-03-24T02:01:04.936Z,91.6031
2024-03-24T02:02:07.946Z,91.6214
2024-03-24T02:03:11.023Z,91.5585
2024-03-24T02:04:14.132Z,91.6225
2024-03-24T02:05:17.088Z,91.6742
2024-03-24T02:06:20.131Z,92.1797
2024-03-24T02:07:23.166Z,92.6355
2024-03-24T02:08:26.190Z,92.2919
2024-03-24T02:09:29.234Z,92.1814
2024-03-24T02:10:32.275Z,92.5711
2024-03-24T02:11:35.318Z,92.7883
2024-03-24T02:12:38.312Z,92.7871
2024-03-24T02:13:41.426Z,93.1724
2024-03-24T02:14:44.441Z,93.0535
2024-03-24T02:15:47.467Z,92.7281
2024-03-24T02:16:50.535Z,92.5823
2024-03-24T02:17:57.815Z,92.9112
2024-03-24T02:18:55.646Z,93.0287
2024-03-24T02:19:58.644Z,93.0750
2024-03-24T02:21:01.726Z,93.1468
2024-03-24T02:22:04.755Z,93.1733
2024-03-24T02:23:07.914Z,93.1977
2024-03-24T02:24:10.907Z,93.3785
2024-03-24T02:25:13.920Z,93.3317
2024-03-24T02:26:17.267Z,93.5130
2024-03-24T02:27:20.344Z,93.5139
2024-03-24T02:28:23.384Z,93.5619
2024-03-24T02:29:26.674Z,93.6810
2024-03-24T02:30:26.588Z,93.6341
2024-03-24T02:31:29.577Z,93.7130
2024-03-24T02:32:32.669Z,93.7473
2024-03-24T02:33:35.703Z,94.0749
2024-03-24T02:34:38.723Z,94.2545
2024-03-24T02:35:41.726Z,94.2809
2024-03-24T02:36:44.753Z,94.3286
2024-03-24T02:37:47.799Z,94.3337
2024-03-24T02:38:50.844Z,94.5147
2024-03-24T02:39:53.952Z,94.5857
2024-03-24T02:40:56.985Z,94.6643
2024-03-24T02:42:00.072Z,94.7362
2024-03-24T02:43:03.109Z,94.8431
2024-03-24T02:44:06.149Z,94.7907
2024-03-24T02:45:09.244Z,94.8081
2024-03-24T02:46:12.273Z,94.7090
2024-03-24T02:47:15.488Z,94.7207
2024-03-24T02:48:18.532Z,94.8770
2024-03-24T02:49:21.554Z,95.0223
2024-03-24T02:50:24.586Z,95.0412
2024-03-24T02:51:27.906Z,94.9849
2024-03-24T02:52:30.993Z,95.0306
2024-03-24T02:53:34.068Z,95.1076
2024-03-24T02:54:37.136Z,95.1044
2024-03-24T02:55:40.136Z,95.0079
2024-03-24T02:56:43.154Z,94.8079
2024-03-24T02:57:46.353Z,94.7918
2024-03-24T02:58:49.351Z,94.9489
2024-03-24T02:59:52.617Z,94.8540
2024-03-24T03:00:55.624Z,94.8815
2024-03-24T03:01:58.677Z,95.0362
2024-03-24T03:03:01.712Z,95.1639
2024-03-24T03:04:04.708Z,95.0480
2024-03-24T03:05:07.811Z,94.9001
2024-03-24T03:06:11.170Z,94.9794
2024-03-24T03:07:14.174Z,94.8428
2024-03-24T03:08:17.195Z,94.7153
2024-03-24T03:09:20.285Z,94.6710
2024-03-24T03:10:23.324Z,94.8093
2024-03-24T03:11:26.341Z,94.8582
2024-03-24T03:12:29.421Z,94.9725
2024-03-24T03:13:32.409Z,95.0947
2024-03-24T03:14:35.478Z,95.0577
2024-03-24T03:15:38.687Z,94.7474
2024-03-24T03:16:41.692Z,94.2652
2024-03-24T03:17:44.673Z,93.9291
2024-03-24T03:18:47.963Z,93.9440
2024-03-24T03:19:50.990Z,94.0056
2024-03-24T03:20:54.043Z,94.0731
2024-03-24T03:21:57.042Z,94.2167
2024-03-24T03:23:00.144Z,94.2890
2024-03-24T03:24:03.159Z,94.4593
2024-03-24T03:25:06.205Z,94.3073
2024-03-24T03:26:09.240Z,94.1331
2024-03-24T03:27:12.229Z,93.8877
2024-03-24T03:28:15.333Z,94.0589
2024-03-24T03:29:18.364Z,94.1488
2024-03-24T03:30:21.443Z,94.3013
2024-03-24T03:31:24.443Z,94.4435
2024-03-24T03:32:27.498Z,94.5364
2024-03-24T03:33:30.555Z,94.6647
2024-03-24T03:34:33.565Z,94.6621
2024-03-24T03:35:36.604Z,94.7590
2024-03-24T03:36:39.640Z,94.9192
2024-03-24T03:37:42.735Z,95.1146
2024-03-24T03:38:45.818Z,95.3552
2024-03-24T03:39:48.882Z,95.5445
2024-03-24T03:40:51.901Z,95.6396
2024-03-24T03:41:55.166Z,95.7704
2024-03-24T03:42:58.189Z,95.7674
2024-03-24T03:44:01.255Z,95.6645
2024-03-24T03:45:04.281Z,95.6110
2024-03-24T03:46:07.320Z,95.6339
2024-03-24T03:47:10.306Z,95.6763
2024-03-24T03:48:13.398Z,95.7566
2024-03-24T03:49:16.523Z,95.8477
2024-03-24T03:50:19.574Z,95.9073
2024-03-24T03:51:22.618Z,95.9342
2024-03-24T03:52:25.668Z,96.0014
2024-03-24T03:53:28.686Z,96.1049
2024-03-24T03:54:31.731Z,96.1282
2024-03-24T03:55:34.750Z,96.1354
2024-03-24T03:56:37.861Z,96.1270
2024-03-24T03:57:40.867Z,96.1195
2024-03-24T03:58:43.891Z,96.0454
2024-03-24T03:59:46.987Z,95.9568
2024-03-24T04:00:49.949Z,95.9081
2024-03-24T04:01:52.931Z,95.8756
2024-03-24T04:02:55.972Z,95.8448
2024-03-24T04:03:58.942Z,95.7718
2024-03-24T04:05:02.044Z,95.6530
2024-03-24T04:06:05.067Z,95.5225
2024-03-24T04:07:08.119Z,95.5146
2024-03-24T04:08:11.186Z,95.5218
2024-03-24T04:09:14.213Z,95.5115
2024-03-24T04:10:17.395Z,95.5351
2024-03-24T04:11:20.420Z,95.5416
2024-03-24T04:12:23.472Z,95.6524
2024-03-24T04:13:26.775Z,95.6689
2024-03-24T04:14:29.795Z,95.6564
2024-03-24T04:15:32.781Z,95.5719
2024-03-24T04:16:35.970Z,95.4215
2024-03-24T04:17:38.953Z,95.2622
2024-03-24T04:18:42.023Z,95.0882
2024-03-24T04:19:45.028Z,95.0734
2024-03-24T04:20:48.294Z,95.1188
2024-03-24T04:21:51.343Z,94.8711
2024-03-24T04:22:54.373Z,94.7767
2024-03-24T04:23:57.423Z,94.6849
2024-03-24T04:25:00.528Z,94.6630
2024-03-24T04:26:03.525Z,94.7172
2024-03-24T04:27:06.544Z,94.6693
2024-03-24T04:28:09.557Z,94.6331
2024-03-24T04:29:12.562Z,94.6673
2024-03-24T04:30:15.682Z,94.8408
2024-03-24T04:31:18.689Z,94.8837
2024-03-24T04:32:21.745Z,94.7569
2024-03-24T04:33:24.755Z,94.7083
2024-03-24T04:34:27.766Z,94.7680
2024-03-24T04:35:30.857Z,94.7984
2024-03-24T04:36:34.043Z,94.8289
2024-03-24T04:37:37.046Z,94.9651
2024-03-24T04:38:40.059Z,95.1426
2024-03-24T04:39:43.326Z,95.2934
2024-03-24T04:40:46.396Z,95.3984
2024-03-24T04:41:49.475Z,95.3185
2024-03-24T04:42:52.643Z,95.3086
2024-03-24T04:43:55.782Z,95.3568
2024-03-24T04:44:58.843Z,95.3804
2024-03-24T04:46:01.894Z,95.3209
2024-03-24T04:47:04.919Z,95.4027
2024-03-24T04:48:07.955Z,95.4754
2024-03-24T04:49:11.016Z,95.5869
2024-03-24T04:50:14.042Z,95.6445
2024-03-24T04:51:17.143Z,95.7874
2024-03-24T04:52:20.184Z,95.8993
2024-03-24T04:53:23.252Z,95.9885
2024-03-24T04:54:26.515Z,96.0455
2024-03-24T04:55:29.586Z,96.0394
2024-03-24T04:56:32.612Z,96.0227
2024-03-24T04:57:35.632Z,96.0345
2024-03-24T04:58:38.691Z,96.0987
2024-03-24T04:59:41.784Z,96.1792
2024-03-24T05:00:44.868Z,96.2175
2024-03-24T05:01:47.884Z,96.1428
2024-03-24T05:02:50.943Z,96.0617
2024-03-24T05:03:53.961Z,95.8264
2024-03-24T05:04:56.956Z,95.6625
2024-03-24T05:06:00.049Z,95.7494
2024-03-24T05:07:03.088Z,95.8478
2024-03-24T05:08:06.114Z,95.8923
2024-03-24T05:09:09.123Z,96.0269
2024-03-24T05:10:12.219Z,96.1829
2024-03-24T05:11:15.203Z,96.2568
2024-03-24T05:12:18.351Z,96.3477
2024-03-24T05:13:21.343Z,96.4281
2024-03-24T05:14:24.387Z,96.4453
2024-03-24T05:15:27.455Z,96.4873
2024-03-24T05:16:30.489Z,96.5414
2024-03-24T05:17:33.631Z,96.5655
2024-03-24T05:18:36.800Z,96.5736
2024-03-24T05:19:39.834Z,96.5728
2024-03-24T05:20:42.869Z,96.5685
2024-03-24T05:21:45.935Z,96.5822
2024-03-24T05:22:49.036Z,96.6256
2024-03-24T05:23:52.104Z,96.6362
2024-03-24T05:24:55.362Z,96.6630
2024-03-24T05:25:58.365Z,96.7081
2024-03-24T05:27:01.465Z,96.7490
2024-03-24T05:28:04.543Z,96.8023
2024-03-24T05:29:07.572Z,96.8051
2024-03-24T05:30:10.643Z,96.7620
2024-03-24T05:31:13.919Z,96.7553
2024-03-24T05:32:16.952Z,96.7509
2024-03-24T05:33:19.992Z,96.7149
2024-03-24T05:34:23.032Z,96.7154
2024-03-24T05:35:26.068Z,96.7111
2024-03-24T05:36:28.561Z,96.7168
2024-03-24T05:37:30.997Z,96.7085
2024-03-24T05:38:33.593Z,96.7078
2024-03-24T05:39:36.049Z,96.6905
2024-03-24T05:40:38.533Z,96.6770
2024-03-24T05:41:41.109Z,96.6946
2024-03-24T05:42:43.624Z,96.6912
2024-03-24T05:43:46.237Z,96.6737
2024-03-24T05:44:48.727Z,96.6237
2024-03-24T05:45:51.191Z,96.6060
2024-03-24T05:46:53.771Z,96.5965
2024-03-24T05:47:56.225Z,96.5871
2024-03-24T05:48:58.701Z,96.6092
2024-03-24T05:50:01.198Z,96.6282
2024-03-24T05:51:03.699Z,96.6746
2024-03-24T05:52:06.161Z,96.7202
2024-03-24T05:53:08.808Z,96.7264
2024-03-24T05:54:11.315Z,96.6453
2024-03-24T05:55:13.756Z,96.5546
2024-03-24T05:56:16.307Z,96.4898
2024-03-24T05:57:18.792Z,96.4597
2024-03-24T05:58:21.255Z,96.3481
2024-03-24T05:59:23.896Z,96.2988
2024-03-24T06:00:26.505Z,96.2414
2024-03-24T06:01:28.922Z,96.1616
2024-03-24T06:02:31.360Z,96.1243
2024-03-24T06:03:34.087Z,96.0473
2024-03-24T06:04:36.482Z,95.8588
2024-03-24T06:05:38.900Z,95.7634
2024-03-24T06:06:41.353Z,95.6356
2024-03-24T06:07:43.811Z,95.4888
2024-03-24T06:08:46.375Z,95.3444
2024-03-24T06:09:48.791Z,95.1070
2024-03-24T06:10:51.514Z,94.7895
2024-03-24T06:11:54.033Z,94.7054
2024-03-24T06:12:56.440Z,94.6998
2024-03-24T06:13:58.960Z,94.8497
2024-03-24T06:15:01.382Z,94.7843
2024-03-24T06:16:03.832Z,94.2678
2024-03-24T06:17:06.257Z,94.0344
2024-03-24T06:18:08.945Z,93.9906
2024-03-24T06:19:14.213Z,94.0053
2024-03-24T06:20:13.735Z,94.2510
2024-03-24T06:21:16.157Z,94.2328
2024-03-24T06:22:18.574Z,94.1309
2024-03-24T06:23:21.022Z,94.1962
2024-03-24T06:24:23.461Z,93.8098
2024-03-24T06:25:25.911Z,93.5448
2024-03-24T06:26:28.474Z,93.3833
2024-03-24T06:27:30.925Z,92.7943
2024-03-24T06:28:33.603Z,92.5348
2024-03-24T06:29:36.047Z,92.4398
2024-03-24T06:30:38.667Z,92.0896
2024-03-24T06:31:43.842Z,92.0907
2024-03-24T06:32:44.808Z,91.6564
2024-03-24T06:33:47.277Z,91.6826
2024-03-24T06:34:49.713Z,91.8859
2024-03-24T06:35:52.311Z,91.4645
2024-03-24T06:36:54.718Z,90.9628
2024-03-24T06:37:57.179Z,91.3986
2024-03-24T06:38:59.604Z,91.6055
2024-03-24T06:40:02.031Z,91.7824
2024-03-24T06:41:04.479Z,91.8276
2024-03-24T06:42:07.027Z,91.2537
2024-03-24T06:43:09.521Z,91.3685
2024-03-24T06:44:11.914Z,91.1176
2024-03-24T06:45:14.382Z,91.1620
2024-03-24T06:46:16.958Z,90.9392
2024-03-24T06:47:19.398Z,90.4660
2024-03-24T06:48:21.865Z,90.4073
2024-03-24T06:49:24.303Z,90.4747
2024-03-24T06:50:26.874Z,90.1040
2024-03-24T06:51:29.312Z,89.7381
2024-03-24T06:52:32.040Z,90.2402
2024-03-24T06:53:34.800Z,90.5612
2024-03-24T06:54:37.370Z,90.4736
2024-03-24T06:55:39.794Z,90.4946
2024-03-24T06:56:42.554Z,91.3133
2024-03-24T06:57:45.284Z,90.5733
2024-03-24T06:58:47.745Z,90.3159
2024-03-24T06:59:50.182Z,90.4480
2024-03-24T07:00:52.618Z,90.7416
2024-03-24T07:01:55.200Z,90.3355
2024-03-24T07:02:57.638Z,90.2598
2024-03-24T07:04:00.299Z,90.7691
2024-03-24T07:05:02.760Z,91.0029
2024-03-24T07:06:05.429Z,90.9771
2024-03-24T07:07:07.842Z,91.2281
2024-03-24T07:08:10.279Z,91.1757
2024-03-24T07:09:12.742Z,91.1182
2024-03-24T07:10:15.183Z,90.2452
2024-03-24T07:11:17.762Z,90.3436
2024-03-24T07:12:20.189Z,91.1029
2024-03-24T07:13:22.830Z,90.5876
2024-03-24T07:14:25.272Z,90.4874
2024-03-24T07:15:27.741Z,89.7836
2024-03-24T07:16:30.199Z,89.4664
2024-03-24T07:17:32.621Z,89.5087
2024-03-24T07:18:35.041Z,88.8257
2024-03-24T07:19:37.601Z,89.3158
2024-03-24T07:20:40.040Z,88.3261
2024-03-24T07:21:42.448Z,87.5602
2024-03-24T07:22:44.940Z,87.7585
2024-03-24T07:23:47.385Z,86.7665
2024-03-24T07:24:49.930Z,86.8171
2024-03-24T07:25:52.632Z,87.0068
2024-03-24T07:26:55.133Z,85.9643
2024-03-24T07:27:58.069Z,86.4293
2024-03-24T07:29:01.124Z,86.5201
2024-03-24T07:30:04.161Z,86.5719
2024-03-24T07:31:07.180Z,86.7046
2024-03-24T07:32:10.231Z,86.7282
2024-03-24T07:33:13.410Z,87.1932
2024-03-24T07:34:16.434Z,86.5894
2024-03-24T07:35:19.486Z,87.2247
2024-03-24T07:36:22.509Z,87.3777
2024-03-24T07:37:25.520Z,87.1050
2024-03-24T07:38:28.543Z,86.9857
2024-03-24T07:39:31.576Z,86.2649
2024-03-24T07:40:34.871Z,84.9561
2024-03-24T07:41:37.914Z,84.8511
2024-03-24T07:42:43.515Z,85.1425
2024-03-24T07:43:44.061Z,83.8979
2024-03-24T07:44:47.111Z,83.9531
2024-03-24T07:45:50.127Z,84.5400
2024-03-24T07:46:53.226Z,84.7733
2024-03-24T07:47:56.258Z,84.0913
2024-03-24T07:48:59.298Z,84.8949
2024-03-24T07:50:02.335Z,85.1620
2024-03-24T07:51:05.342Z,84.4906
2024-03-24T07:52:08.361Z,84.2007
2024-03-24T07:53:11.390Z,85.1922
2024-03-24T07:54:14.526Z,85.1609
2024-03-24T07:55:17.584Z,84.0760
2024-03-24T07:56:20.557Z,84.2896
2024-03-24T07:57:23.831Z,83.6494
2024-03-24T07:58:27.053Z,83.9853
2024-03-24T07:59:30.198Z,84.7084
2024-03-24T08:00:33.253Z,85.1816
2024-03-24T08:01:36.305Z,83.9595
2024-03-24T08:02:39.387Z,83.9049
2024-03-24T08:03:42.381Z,84.5686
2024-03-24T08:04:45.471Z,84.8937
2024-03-24T08:05:48.548Z,84.1208
2024-03-24T08:06:51.630Z,82.9807
2024-03-24T08:07:56.440Z,82.7898
2024-03-24T08:08:56.422Z,82.1901
2024-03-24T08:09:59.651Z,80.3844
2024-03-24T08:11:02.703Z,79.3492
2024-03-24T08:12:05.831Z,79.1570
2024-03-24T08:13:08.841Z,79.9171
2024-03-24T08:14:11.936Z,79.3357
2024-03-24T08:15:14.953Z,78.6960
2024-03-24T08:16:17.965Z,78.6600
2024-03-24T08:17:21.267Z,78.8852
2024-03-24T08:18:24.301Z,79.1942
2024-03-24T08:19:27.341Z,81.0555
2024-03-24T08:20:30.431Z,79.8965
2024-03-24T08:21:33.522Z,79.1003
2024-03-24T08:22:36.804Z,77.8384
2024-03-24T08:23:39.909Z,78.4800
2024-03-24T08:24:42.928Z,79.6880
2024-03-24T08:25:45.896Z,78.9963
2024-03-24T08:26:48.968Z,79.7386
2024-03-24T08:27:51.981Z,79.5382
2024-03-24T08:28:55.007Z,79.7361
2024-03-24T08:29:58.052Z,76.5452
2024-03-24T08:31:01.061Z,76.9244
2024-03-24T08:32:04.074Z,76.1992
2024-03-24T08:33:07.181Z,75.2177
2024-03-24T08:34:10.220Z,74.7812
2024-03-24T08:35:13.221Z,75.1812
2024-03-24T08:36:16.629Z,73.9427
2024-03-24T08:37:19.696Z,75.3713
2024-03-24T08:38:22.869Z,76.4036
2024-03-24T08:39:25.889Z,77.1296
2024-03-24T08:40:31.120Z,77.8080
2024-03-24T08:41:31.911Z,77.7118
2024-03-24T08:42:34.904Z,76.6660
2024-03-24T08:43:37.899Z,76.8996
2024-03-24T08:44:40.958Z,77.0239
2024-03-24T08:45:43.994Z,76.9344
2024-03-24T08:46:47.043Z,76.7534
2024-03-24T08:47:50.058Z,76.5226
2024-03-24T08:48:53.087Z,76.3726
2024-03-24T08:49:56.147Z,76.7124
2024-03-24T08:50:59.126Z,76.1832
2024-03-24T08:52:02.253Z,75.9697
2024-03-24T08:53:05.258Z,77.0588
2024-03-24T08:54:08.567Z,78.8737
2024-03-24T08:55:11.704Z,78.0978
2024-03-24T08:56:14.700Z,78.3213
2024-03-24T08:57:17.736Z,79.2702
2024-03-24T08:58:20.800Z,79.6912
2024-03-24T08:59:23.996Z,79.2461
2024-03-24T09:00:27.190Z,79.0132
2024-03-24T09:01:30.283Z,79.3735
2024-03-24T09:02:33.503Z,78.4142
2024-03-24T09:03:36.600Z,78.5313
2024-03-24T09:04:39.690Z,78.8731
2024-03-24T09:05:42.756Z,78.0043
2024-03-24T09:06:45.769Z,79.0939
2024-03-24T09:07:48.817Z,77.0012
2024-03-24T09:08:51.865Z,77.1321
2024-03-24T09:09:54.893Z,77.3765
2024-03-24T09:10:57.888Z,75.8636
2024-03-24T09:12:01.046Z,76.1840
2024-03-24T09:13:04.060Z,75.5799
2024-03-24T09:14:07.076Z,75.2451
2024-03-24T09:15:10.267Z,75.1804
2024-03-24T09:16:13.239Z,74.2360
2024-03-24T09:17:16.392Z,72.6314
2024-03-24T09:18:19.495Z,71.9155
2024-03-24T09:19:22.548Z,72.5060
2024-03-24T09:20:25.620Z,69.9775
2024-03-24T09:21:28.643Z,69.6258
2024-03-24T09:22:31.657Z,69.5555
2024-03-24T09:23:34.706Z,68.7233
2024-03-24T09:24:37.752Z,67.2944
2024-03-24T09:25:40.772Z,65.7846
2024-03-24T09:26:43.822Z,65.3931
2024-03-24T09:27:46.869Z,63.6179
2024-03-24T09:28:49.889Z,62.1024
2024-03-24T09:29:52.989Z,61.9861
2024-03-24T09:30:56.033Z,63.6907
2024-03-24T09:31:59.075Z,62.4961
2024-03-24T09:33:02.092Z,62.2911
2024-03-24T09:34:05.354Z,64.1428
2024-03-24T09:35:13.272Z,63.2425
2024-03-24T09:36:10.583Z,62.2403
2024-03-24T09:37:13.575Z,62.2646
2024-03-24T09:38:16.856Z,65.4181
2024-03-24T09:39:19.962Z,65.4178
2024-03-24T09:40:23.054Z,64.4516
2024-03-24T09:41:26.096Z,67.6134
2024-03-24T09:42:29.100Z,69.5427
2024-03-24T09:43:32.160Z,69.0164
2024-03-24T09:44:35.234Z,67.6277
2024-03-24T09:45:38.260Z,66.6934
2024-03-24T09:46:41.242Z,66.4286
2024-03-24T09:47:44.301Z,67.8464
2024-03-24T09:48:47.301Z,68.6453
2024-03-24T09:49:50.319Z,68.8688
2024-03-24T09:50:53.393Z,65.4376
2024-03-24T09:51:56.452Z,64.7035
2024-03-24T09:52:59.489Z,62.2656
2024-03-24T09:54:02.553Z,62.5401
2024-03-24T09:55:05.580Z,61.7478
2024-03-24T09:56:08.608Z,61.5954
2024-03-24T09:57:11.663Z,61.6277
2024-03-24T09:58:17.214Z,63.7115
2024-03-24T09:59:17.462Z,63.0915
2024-03-24T10:00:20.724Z,63.9263
2024-03-24T10:01:23.826Z,61.4874
2024-03-24T10:02:26.845Z,60.2548
2024-03-24T10:03:29.922Z,62.2993
2024-03-24T10:04:32.922Z,60.4226
2024-03-24T10:05:35.981Z,62.0538
2024-03-24T10:06:38.996Z,63.2844
2024-03-24T10:07:42.053Z,64.0257
2024-03-24T10:08:45.104Z,65.1375
2024-03-24T10:09:48.187Z,64.5594
2024-03-24T10:10:51.163Z,65.4192
2024-03-24T10:11:54.314Z,67.3537
2024-03-24T10:12:57.334Z,68.3372
2024-03-24T10:14:00.364Z,66.3592
2024-03-24T10:15:03.389Z,66.2237
2024-03-24T10:16:06.400Z,66.8039
2024-03-24T10:17:09.433Z,67.2607
2024-03-24T10:18:09.652Z,67.0932
2024-03-24T10:19:12.697Z,67.8178
2024-03-24T10:20:15.746Z,67.2732
2024-03-24T10:21:18.741Z,68.5374
2024-03-24T10:22:22.090Z,69.4675
2024-03-24T10:23:25.100Z,72.1164
2024-03-24T10:24:28.140Z,72.4058
2024-03-24T10:25:31.198Z,73.0275
2024-03-24T10:26:34.269Z,74.0490
2024-03-24T10:27:37.297Z,75.2735
2024-03-24T10:28:40.313Z,75.0624
2024-03-24T10:29:43.429Z,75.6520
2024-03-24T10:30:46.445Z,76.2980
2024-03-24T10:31:52.731Z,76.0661
2024-03-24T10:32:52.843Z,75.9679
2024-03-24T10:33:55.848Z,75.3563
2024-03-24T10:34:58.858Z,73.9032
2024-03-24T10:36:02.032Z,68.9185
2024-03-24T10:37:05.041Z,67.1628
2024-03-24T10:38:08.189Z,67.3699
2024-03-24T10:39:11.242Z,69.0290
2024-03-24T10:40:14.371Z,68.7923
2024-03-24T10:41:17.420Z,68.6326
2024-03-24T10:42:20.459Z,65.2724
2024-03-24T10:43:23.525Z,64.7359
2024-03-24T10:44:26.502Z,63.4903
2024-03-24T10:45:29.542Z,65.1630
2024-03-24T10:46:32.579Z,67.2591
2024-03-24T10:47:35.712Z,65.9715
2024-03-24T10:48:38.730Z,66.2808
2024-03-24T10:49:41.789Z,67.1685
2024-03-24T10:50:44.814Z,64.5798
2024-03-24T10:51:47.855Z,63.3953
2024-03-24T10:52:53.250Z,61.7965
2024-03-24T10:53:53.318Z,63.4408
2024-03-24T10:54:56.348Z,59.5716
2024-03-24T10:55:59.379Z,58.8586
2024-03-24T10:57:02.394Z,61.7798
2024-03-24T10:58:05.413Z,60.3449
2024-03-24T10:59:11.307Z,63.1567
2024-03-24T11:00:08.717Z,66.2439
2024-03-24T11:01:11.999Z,66.5796
2024-03-24T11:02:15.077Z,68.9390
2024-03-24T11:03:18.131Z,69.8523
2024-03-24T11:04:21.149Z,72.1196
2024-03-24T11:05:24.160Z,73.8193
2024-03-24T11:06:27.180Z,75.0099
2024-03-24T11:07:30.246Z,78.7527
2024-03-24T11:08:33.269Z,80.4681
2024-03-24T11:09:36.289Z,82.7448
2024-03-24T11:10:39.346Z,83.6435
2024-03-24T11:11:42.478Z,84.7632
2024-03-24T11:12:45.609Z,85.9323
2024-03-24T11:13:48.778Z,87.5546
2024-03-24T11:14:51.880Z,87.5562
2024-03-24T11:15:54.904Z,86.8442
2024-03-24T11:16:57.408Z,4.8056
2024-03-24T11:17:59.971Z,0.0000
2024-03-24T11:19:02.420Z,0.0000
2024-03-24T11:20:04.886Z,0.0000
2024-03-24T11:21:07.347Z,0.0000
2024-03-24T11:22:09.772Z,0.0000
2024-03-24T11:23:12.292Z,0.0000
2024-03-24T11:24:14.747Z,0.0000
2024-03-24T11:25:17.350Z,0.0000
2024-03-24T11:26:19.898Z,17.5452
2024-03-24T11:27:22.926Z,79.7466
2024-03-24T11:28:23.083Z,78.3497
2024-03-24T11:29:26.177Z,80.1917
2024-03-24T11:30:29.177Z,77.2574
2024-03-24T11:31:32.167Z,73.9150
2024-03-24T11:32:35.178Z,75.9078
2024-03-24T11:33:38.220Z,74.6648
2024-03-24T11:34:41.248Z,76.8955
2024-03-24T11:35:44.340Z,77.7600
2024-03-24T11:36:47.375Z,79.3672
2024-03-24T11:37:50.445Z,78.2411
2024-03-24T11:38:53.418Z,74.5383
2024-03-24T11:39:56.495Z,73.1398
2024-03-24T11:40:59.539Z,72.3903
2024-03-24T11:42:02.592Z,71.4176
2024-03-24T11:43:05.619Z,68.7645
2024-03-24T11:44:08.645Z,70.0918
2024-03-24T11:45:11.727Z,67.5840
2024-03-24T11:46:14.717Z,66.8351
2024-03-24T11:47:17.778Z,66.4500
2024-03-24T11:48:20.829Z,67.3190
2024-03-24T11:49:23.849Z,65.4766
2024-03-24T11:50:27.239Z,64.7306
2024-03-24T11:51:30.262Z,65.4627
2024-03-24T11:52:33.366Z,66.2672
2024-03-24T11:53:36.395Z,65.2253
2024-03-24T11:54:39.420Z,65.4894
2024-03-24T11:55:42.419Z,66.7217
2024-03-24T11:56:45.465Z,63.3995
2024-03-24T11:57:48.529Z,62.2710
2024-03-24T11:58:51.540Z,64.3972
2024-03-24T11:59:54.576Z,63.2046
2024-03-24T12:00:57.628Z,64.0407
2024-03-24T12:02:00.662Z,66.0399
2024-03-24T12:03:03.747Z,64.2468
2024-03-24T12:04:06.736Z,65.1487
2024-03-24T12:05:09.748Z,66.6451
2024-03-24T12:06:12.798Z,65.7220
2024-03-24T12:07:15.898Z,67.7101
2024-03-24T12:08:18.908Z,66.3960
2024-03-24T12:09:21.921Z,67.4299
2024-03-24T12:10:24.987Z,65.5393
2024-03-24T12:11:28.027Z,65.1948
2024-03-24T12:12:31.067Z,64.9287
2024-03-24T12:13:34.116Z,64.2262
2024-03-24T12:14:37.146Z,62.6625
2024-03-24T12:15:40.171Z,64.2738
2024-03-24T12:16:43.247Z,65.0857
2024-03-24T12:17:46.287Z,64.7572
2024-03-24T12:18:49.306Z,64.0535
2024-03-24T12:19:52.372Z,63.0265
2024-03-24T12:20:55.504Z,59.5075
2024-03-24T12:21:58.570Z,57.9733
2024-03-24T12:23:01.606Z,59.2256
2024-03-24T12:24:04.826Z,57.3242
2024-03-24T12:25:07.824Z,58.6607
2024-03-24T12:26:10.834Z,61.4303
2024-03-24T12:27:13.940Z,60.6635
2024-03-24T12:28:16.985Z,58.8639
2024-03-24T12:29:20.020Z,58.4769
2024-03-24T12:30:23.074Z,56.5290
2024-03-24T12:31:26.426Z,56.7234
2024-03-24T12:32:29.461Z,56.6979
2024-03-24T12:33:32.499Z,58.1702
2024-03-24T12:34:35.540Z,59.7782
2024-03-24T12:35:38.588Z,59.5825
2024-03-24T12:36:41.618Z,61.6152
2024-03-24T12:37:44.698Z,60.9584
2024-03-24T12:38:47.719Z,62.0519
2024-03-24T12:39:50.736Z,61.1609
2024-03-24T12:40:55.245Z,62.3209
2024-03-24T12:41:54.968Z,63.1756